Time;durP1;ratioP1;P1;durP2;ratioP2;P2;SDS_P1;SDS_P2;PMS_P1;PMS_P2;Temp;Humidity;BMP_temperature;BMP_pressure;BME280_temperature;BME280_humidity;BME280_pressure;Samples;Min_cycle;Max_cycle;Signal;HPM_P1;HPM_P2
2022/09/29 00:00:37;;;;;;;24.70;16.83;;;;;;;;;;4362017;32;20284;-74
2022/09/29 00:03:03;;;;;;;;;;;;;;;;;;4362627;33;20014;-74
2022/09/29 00:05:29;;;;;;;21.00;16.50;;;;;;;;;;4361947;32;19978;-74
2022/09/29 00:07:54;;;;;;;23.02;17.27;;;;;;;;;;4361947;33;20085;-74
2022/09/29 00:10:19;;;;;;;;;;;;;;;;;;4362507;32;20028;-74
2022/09/29 00:12:47;;;;;;;20.27;17.45;;;;;;;;;;4362068;32;19934;-75
2022/09/29 00:15:13;;;;;;;23.10;18.52;;;;;;;;;;4361840;32;20045;-74
2022/09/29 00:17:38;;;;;;;;;;;;;;;;;;4362214;32;20082;-74
2022/09/29 00:20:04;;;;;;;22.75;16.95;;;;;;;;;;4361688;33;20384;-74
2022/09/29 00:22:29;;;;;;;31.80;21.25;;;;;;;;;;4362046;32;20023;-74
2022/09/29 00:24:54;;;;;;;;;;;;;;;;;;4362227;32;20024;-74
2022/09/29 00:27:20;;;;;;;30.08;19.83;;;;;;;;;;4362081;32;19957;-74
2022/09/29 00:29:45;;;;;;;;;;;;;;;;;;4362655;32;20023;-74
2022/09/29 00:32:10;;;;;;;25.58;19.05;;;;;;;;;;4361956;32;19960;-74
2022/09/29 00:34:36;;;;;;;;;;;;;;;;;;4362477;32;20076;-74
2022/09/29 00:37:01;;;;;;;25.88;19.17;;;;;;;;;;4361448;32;20370;-74
2022/09/29 00:39:27;;;;;;;23.98;18.60;;;;;;;;;;4361091;32;20066;-74
2022/09/29 00:41:52;;;;;;;;;;;;;;;;;;4361083;33;20430;-74
2022/09/29 00:44:20;;;;;;;29.20;22.00;;;;;;;;;;4361468;32;19984;-74
2022/09/29 00:46:57;;;;;;;27.17;19.58;;;;;;;;;;4361399;32;20135;-74
2022/09/29 00:49:24;;;;;;;28.27;21.62;;;;;;;;;;4361698;32;20406;-74
2022/09/29 00:51:51;;;;;;;25.50;19.98;;;;;;;;;;4361446;32;20103;-74
2022/09/29 00:54:17;;;;;;;27.40;20.83;;;;;;;;;;4347460;33;20149;-74
2022/09/29 00:56:42;;;;;;;;;;;;;;;;;;4361407;32;20373;-74
2022/09/29 00:59:11;;;;;;;31.42;22.08;;;;;;;;;;4360729;32;19978;-74
2022/09/29 01:01:36;;;;;;;31.58;23.40;;;;;;;;;;4348153;33;20089;-74
2022/09/29 01:04:02;;;;;;;;;;;;;;;;;;4361425;32;20410;-74
2022/09/29 01:06:30;;;;;;;29.27;22.25;;;;;;;;;;4361620;32;20326;-74
2022/09/29 01:09:00;;;;;;;39.63;26.10;;;;;;;;;;4357744;32;20024;-74
2022/09/29 01:11:25;;;;;;;31.62;23.50;;;;;;;;;;4347320;33;20019;-74
2022/09/29 01:13:53;;;;;;;;;;;;;;;;;;4361553;32;20408;-74
2022/09/29 01:20:02;;;;;;;32.83;23.85;;;;;;;;;;4329339;33;20068;-74
2022/09/29 01:22:46;;;;;;;33.30;25.50;;;;;;;;;;4344356;33;20050;-74
2022/09/29 01:25:32;;;;;;;33.63;25.12;;;;;;;;;;4347566;33;20023;-74
2022/09/29 01:28:07;;;;;;;38.40;28.20;;;;;;;;;;4354074;33;20043;-74
2022/09/29 01:30:48;;;;;;;34.13;26.67;;;;;;;;;;4361597;32;20027;-74
2022/09/29 01:33:26;;;;;;;36.88;28.00;;;;;;;;;;4357813;32;20019;-74
2022/09/29 01:36:04;;;;;;;38.03;27.52;;;;;;;;;;4359520;33;20023;-74
2022/09/29 01:38:45;;;;;;;35.42;27.10;;;;;;;;;;4357974;32;20140;-74
2022/09/29 01:41:26;;;;;;;35.83;27.20;;;;;;;;;;4360964;32;20020;-74
2022/09/29 01:43:56;;;;;;;36.00;27.70;;;;;;;;;;4359984;32;20046;-74
2022/09/29 01:46:23;;;;;;;38.10;27.05;;;;;;;;;;4360591;32;20026;-74
2022/09/29 01:48:51;;;;;;;35.90;27.02;;;;;;;;;;4360604;32;20074;-74
2022/09/29 01:51:20;;;;;;;36.65;28.65;;;;;;;;;;4360703;32;20057;-74
2022/09/29 01:53:48;;;;;;;36.42;27.35;;;;;;;;;;4350108;32;20454;-74
2022/09/29 01:56:17;;;;;;;42.58;28.65;;;;;;;;;;4350212;33;20043;-74
2022/09/29 01:58:42;;;;;;;33.63;26.35;;;;;;;;;;4360709;32;20034;-74
2022/09/29 02:01:08;;;;;;;;;;;;;;;;;;4354642;32;20071;-74
2022/09/29 02:03:41;;;;;;;34.95;26.60;;;;;;;;;;4360366;32;19939;-74
2022/09/29 02:06:10;;;;;;;37.05;25.95;;;;;;;;;;4360401;32;20023;-74
2022/09/29 02:08:54;;;;;;;40.80;29.70;;;;;;;;;;4359313;32;20089;-74
2022/09/29 02:11:20;;;;;;;47.90;24.35;;;;;;;;;;4351733;33;20023;-74
2022/09/29 02:13:45;;;;;;;;;;;;;;;;;;4360625;32;20060;-74
2022/09/29 02:16:13;;;;;;;46.10;26.90;;;;;;;;;;4360572;32;19982;-74
2022/09/29 02:18:46;;;;;;;59.33;29.45;;;;;;;;;;4361050;32;20174;-74
2022/09/29 02:21:12;;;;;;;56.05;28.80;;;;;;;;;;4359449;32;20057;-75
2022/09/29 02:23:48;;;;;;;;;;;;;;;;;;4360491;32;20031;-74
2022/09/29 02:29:16;;;;;;;52.10;28.65;;;;;;;;;;4342253;33;20438;-74
2022/09/29 02:31:41;;;;;;;;;;;;;;;;;;4360424;32;20050;-75
2022/09/29 02:34:09;;;;;;;42.90;29.08;;;;;;;;;;4360098;32;19935;-74
2022/09/29 02:36:48;;;;;;;41.45;30.80;;;;;;;;;;4352838;33;20057;-74
2022/09/29 02:39:27;;;;;;;39.95;29.33;;;;;;;;;;4360185;32;20063;-74
2022/09/29 02:42:02;;;;;;;49.90;30.83;;;;;;;;;;4360502;32;20058;-74
2022/09/29 02:44:27;;;;;;;43.67;30.73;;;;;;;;;;4360992;32;20110;-74
2022/09/29 02:46:53;;;;;;;;;;;;;;;;;;4361373;32;20023;-74
2022/09/29 02:49:24;;;;;;;40.50;29.50;;;;;;;;;;4359971;32;19956;-74
2022/09/29 02:51:57;;;;;;;41.88;30.10;;;;;;;;;;4359786;32;20132;-74
2022/09/29 02:54:31;;;;;;;49.08;33.72;;;;;;;;;;4358003;33;20419;-74
2022/09/29 02:57:06;;;;;;;45.33;31.58;;;;;;;;;;4358640;32;20113;-74
2022/09/29 02:59:36;;;;;;;45.47;31.93;;;;;;;;;;4357523;33;20094;-74
2022/09/29 03:02:01;;;;;;;43.60;30.90;;;;;;;;;;4360785;33;20026;-74
2022/09/29 03:04:27;;;;;;;;;;;;;;;;;;4360373;33;20035;-74
2022/09/29 03:06:53;;;;;;;45.85;30.90;;;;;;;;;;4361299;33;19947;-74
2022/09/29 03:09:18;;;;;;;;;;;;;;;;;;4348144;33;20027;-74
2022/09/29 03:11:43;;;;;;;62.55;34.83;;;;;;;;;;4360669;33;20519;-75
2022/09/29 03:14:08;;;;;;;;;;;;;;;;;;4360392;33;20040;-74
2022/09/29 03:16:34;;;;;;;57.67;31.20;;;;;;;;;;4360082;33;19966;-74
2022/09/29 03:19:00;;;;;;;;;;;;;;;;;;4360697;33;20094;-74
2022/09/29 03:21:25;;;;;;;53.10;31.55;;;;;;;;;;4353216;33;19946;-74
2022/09/29 03:23:50;;;;;;;;;;;;;;;;;;4360375;33;20031;-74
2022/09/29 03:26:16;;;;;;;49.28;30.08;;;;;;;;;;4359778;33;19957;-74
2022/09/29 03:28:41;;;;;;;;;;;;;;;;;;4346515;33;20051;-74
2022/09/29 03:31:08;;;;;;;49.85;30.88;;;;;;;;;;4359737;32;19942;-74
2022/09/29 03:33:49;;;;;;;69.57;38.17;;;;;;;;;;4362254;33;20089;-74
2022/09/29 03:36:19;;;;;;;59.75;33.75;;;;;;;;;;4359757;33;20617;-74
2022/09/29 03:38:46;;;;;;;60.63;33.33;;;;;;;;;;4359514;32;20062;-74
2022/09/29 03:41:11;;;;;;;63.90;38.60;;;;;;;;;;4362591;33;20031;-74
2022/09/29 03:43:36;;;;;;;;;;;;;;;;;;4362797;32;20098;-74
2022/09/29 03:46:02;;;;;;;58.92;36.97;;;;;;;;;;4348962;33;19938;-74
2022/09/29 03:48:30;;;;;;;;;;;;;;;;;;4362960;32;20027;-74
2022/09/29 03:50:55;;;;;;;56.85;35.13;;;;;;;;;;4362304;33;19994;-75
2022/09/29 03:53:23;;;;;;;;;;;;;;;;;;4363473;32;20027;-74
2022/09/29 03:55:49;;;;;;;64.95;36.70;;;;;;;;;;4362259;32;20358;-74
2022/09/29 03:58:14;;;;;;;;;;;;;;;;;;4362515;32;20031;-74
2022/09/29 04:00:39;;;;;;;52.58;33.30;;;;;;;;;;4358495;32;19982;-74
2022/09/29 04:03:05;;;;;;;;;;;;;;;;;;4362468;32;20177;-74
2022/09/29 04:05:31;;;;;;;45.90;30.85;;;;;;;;;;4354309;32;19985;-74
2022/09/29 04:07:56;;;;;;;;;;;;;;;;;;4362691;32;20044;-73
2022/09/29 04:10:22;;;;;;;52.83;34.22;;;;;;;;;;4362067;33;19943;-74
2022/09/29 04:12:47;;;;;;;54.63;36.50;;;;;;;;;;4362429;33;20464;-74
2022/09/29 04:15:13;;;;;;;60.25;36.17;;;;;;;;;;4362245;32;20035;-74
2022/09/29 04:17:38;;;;;;;;;;;;;;;;;;4362862;32;20452;-74
2022/09/29 04:20:03;;;;;;;68.68;35.72;;;;;;;;;;4358267;32;19942;-74
2022/09/29 04:22:28;;;;;;;;;;;;;;;;;;4362775;32;20124;-74
2022/09/29 04:24:54;;;;;;;100.72;39.55;;;;;;;;;;4361968;33;19934;-74
2022/09/29 04:27:20;;;;;;;80.53;37.13;;;;;;;;;;4362355;32;20096;-74
2022/09/29 04:29:45;;;;;;;;;;;;;;;;;;4362345;33;20031;-74
2022/09/29 04:32:10;;;;;;;118.95;42.42;;;;;;;;;;4362349;33;19961;-74
2022/09/29 04:34:36;;;;;;;;;;;;;;;;;;4362083;32;20418;-74
2022/09/29 04:37:02;;;;;;;82.72;41.58;;;;;;;;;;4361954;32;19977;-74
2022/09/29 04:39:27;;;;;;;;;;;;;;;;;;4362182;32;20043;-74
2022/09/29 04:41:52;;;;;;;72.45;38.40;;;;;;;;;;4362098;32;19943;-74
2022/09/29 04:44:23;;;;;;;57.62;32.65;;;;;;;;;;4361961;32;20046;-75
2022/09/29 04:50:14;;;;;;;57.83;33.05;;;;;;;;;;4329945;33;20398;-75
2022/09/29 04:52:43;;;;;;;71.15;35.72;;;;;;;;;;4330214;33;20123;-75
2022/09/29 04:55:10;;;;;;;87.80;37.53;;;;;;;;;;4353169;33;20023;-75
2022/09/29 04:57:38;;;;;;;85.85;35.78;;;;;;;;;;4361600;32;20027;-74
2022/09/29 05:00:04;;;;;;;72.62;31.45;;;;;;;;;;4362101;32;20035;-75
2022/09/29 05:02:30;;;;;;;76.85;35.25;;;;;;;;;;4361324;32;20138;-75
2022/09/29 05:04:55;;;;;;;;;;;;;;;;;;4361631;33;20036;-74
2022/09/29 05:07:20;;;;;;;53.95;28.60;;;;;;;;;;4361648;32;19980;-74
2022/09/29 05:09:45;;;;;;;;;;;;;;;;;;4361965;32;20023;-75
2022/09/29 05:12:23;;;;;;;108.10;37.63;;;;;;;;;;4361078;32;19994;-75
2022/09/29 05:14:49;;;;;;;373.33;56.03;;;;;;;;;;4361627;32;20059;-75
2022/09/29 05:17:14;;;;;;;;;;;;;;;;;;4361725;32;20031;-74
2022/09/29 05:19:39;;;;;;;80.85;35.63;;;;;;;;;;4361404;33;19977;-75
2022/09/29 05:22:12;;;;;;;;;;;;;;;;;;4361689;32;20124;-75
2022/09/29 05:24:37;;;;;;;76.93;32.17;;;;;;;;;;4347152;33;19981;-75
2022/09/29 05:27:02;;;;;;;;;;;;;;;;;;4362186;32;20027;-75
2022/09/29 05:29:28;;;;;;;93.50;33.92;;;;;;;;;;4360828;32;19934;-75
2022/09/29 05:31:53;;;;;;;;;;;;;;;;;;4362551;32;20123;-75
2022/09/29 05:34:18;;;;;;;200.05;40.92;;;;;;;;;;4361177;32;20274;-75
2022/09/29 05:36:44;;;;;;;;;;;;;;;;;;4361324;33;20023;-75
2022/09/29 05:39:09;;;;;;;157.10;45.47;;;;;;;;;;4361031;32;19939;-75
2022/09/29 05:41:40;;;;;;;;;;;;;;;;;;4361866;32;20109;-75
2022/09/29 05:45:16;;;;;;;123.50;38.47;;;;;;;;;;4360926;33;19950;-74
2022/09/29 05:50:18;;;;;;;88.00;36.80;;;;;;;;;;4349535;33;20092;-74
2022/09/29 05:52:47;;;;;;;;;;;;;;;;;;4360025;32;20043;-76
2022/09/29 05:55:41;;;;;;;66.10;35.15;;;;;;;;;;4359630;32;19962;-76
2022/09/29 05:58:09;;;;;;;181.95;42.95;;;;;;;;;;4355530;33;20049;-76
2022/09/29 06:00:42;;;;;;;156.55;41.85;;;;;;;;;;4360243;32;20365;-76
2022/09/29 06:03:34;;;;;;;194.77;41.95;;;;;;;;;;4359989;33;20102;-76
2022/09/29 06:06:31;;;;;;;53.42;29.95;;;;;;;;;;4346680;33;20058;-75
2022/09/29 06:09:12;;;;;;;57.55;29.15;;;;;;;;;;4334258;33;20072;-75
2022/09/29 06:11:37;;;;;;;195.05;43.90;;;;;;;;;;4360823;32;20042;-75
2022/09/29 06:14:02;;;;;;;;;;;;;;;;;;4360661;32;20028;-76
2022/09/29 06:16:28;;;;;;;152.77;42.97;;;;;;;;;;4359720;32;20020;-75
2022/09/29 06:18:53;;;;;;;;;;;;;;;;;;4359841;32;20023;-75
2022/09/29 06:21:20;;;;;;;89.07;34.22;;;;;;;;;;4360964;32;19974;-76
2022/09/29 06:23:45;;;;;;;195.02;51.08;;;;;;;;;;4360265;32;20538;-75
2022/09/29 06:26:10;;;;;;;;;;;;;;;;;;4361387;32;20020;-75
2022/09/29 06:28:36;;;;;;;118.20;42.33;;;;;;;;;;4360655;32;19953;-76
2022/09/29 06:31:03;;;;;;;116.12;41.03;;;;;;;;;;4361557;32;20023;-75
2022/09/29 06:33:29;;;;;;;73.97;37.15;;;;;;;;;;4360057;32;20190;-75
2022/09/29 06:38:49;;;;;;;41.45;32.35;;;;;;;;;;4360492;32;19929;-76
2022/09/29 06:41:14;;;;;;;39.13;31.48;;;;;;;;;;4359207;33;20425;-76
2022/09/29 06:43:39;;;;;;;;;;;;;;;;;;4346661;33;20054;-75
2022/09/29 06:46:05;;;;;;;37.15;28.15;;;;;;;;;;4347045;33;19973;-75
2022/09/29 06:48:32;;;;;;;;;;;;;;;;;;4361040;32;20177;-75
2022/09/29 06:50:59;;;;;;;;;;;;;;;;;;4360824;32;19957;-75
2022/09/29 06:53:27;;;;;;;38.20;31.87;;;;;;;;;;4360025;33;20351;-75
2022/09/29 06:55:59;;;;;;;35.55;28.75;;;;;;;;;;4360506;32;20023;-75
2022/09/29 06:58:25;;;;;;;31.80;27.15;;;;;;;;;;4360203;32;20082;-75
2022/09/29 07:00:50;;;;;;;;;;;;;;;;;;4360646;33;20376;-75
2022/09/29 07:03:15;;;;;;;40.40;32.08;;;;;;;;;;4360397;33;19957;-74
2022/09/29 07:05:43;;;;;;;;;;;;;;;;;;4360446;32;20019;-75
2022/09/29 07:08:30;;;;;;;43.05;34.25;;;;;;;;;;4362212;33;20355;-76
2022/09/29 07:10:55;;;;;;;48.25;36.47;;;;;;;;;;4363507;32;20045;-75
2022/09/29 07:13:23;;;;;;;;;;;;;;;;;;4363751;33;20023;-75
2022/09/29 07:15:48;;;;;;;40.33;30.35;;;;;;;;;;4363073;33;20362;-75
2022/09/29 07:18:13;;;;;;;;;;;;;;;;;;4363369;32;20022;-74
2022/09/29 07:20:39;;;;;;;47.72;34.95;;;;;;;;;;4363096;32;20386;-76
2022/09/29 07:23:04;;;;;;;;;;;;;;;;;;4363030;32;20023;-75
2022/09/29 07:25:33;;;;;;;51.70;35.63;;;;;;;;;;4362139;32;19955;-75
2022/09/29 07:27:58;;;;;;;52.60;36.35;;;;;;;;;;4362574;32;20069;-78
2022/09/29 07:30:24;;;;;;;;;;;;;;;;;;4363149;33;20094;-76
2022/09/29 07:32:49;;;;;;;52.45;36.92;;;;;;;;;;4363770;32;20391;-76
2022/09/29 07:35:15;;;;;;;;;;;;;;;;;;4362652;33;20031;-76
2022/09/29 07:37:40;;;;;;;51.72;37.58;;;;;;;;;;4362382;32;19942;-76
2022/09/29 07:40:05;;;;;;;;;;;;;;;;;;4362576;32;20043;-76
2022/09/29 07:42:31;;;;;;;44.83;34.40;;;;;;;;;;4361397;32;19945;-76
2022/09/29 07:44:56;;;;;;;;;;;;;;;;;;4348331;33;20028;-76
2022/09/29 07:47:21;;;;;;;62.70;38.03;;;;;;;;;;4347853;33;19990;-76
2022/09/29 07:49:47;;;;;;;;;;;;;;;;;;4335055;33;20091;-76
2022/09/29 07:52:13;;;;;;;59.58;40.53;;;;;;;;;;4348843;33;20315;-76
2022/09/29 07:54:38;;;;;;;;;;;;;;;;;;4348188;33;20063;-71
2022/09/29 07:57:06;;;;;;;83.55;48.85;;;;;;;;;;4348020;33;20261;-76
2022/09/29 07:59:32;;;;;;;71.95;43.97;;;;;;;;;;4347557;33;20113;-76
2022/09/29 08:01:57;;;;;;;;;;;;;;;;;;4347480;33;20343;-76
2022/09/29 08:04:23;;;;;;;66.43;45.95;;;;;;;;;;4347657;33;20318;-76
2022/09/29 08:06:49;;;;;;;70.18;48.50;;;;;;;;;;4347323;33;20067;-76
2022/09/29 08:09:14;;;;;;;;;;;;;;;;;;4348247;33;20062;-75
2022/09/29 08:11:41;;;;;;;64.55;48.90;;;;;;;;;;4347661;33;19943;-76
2022/09/29 08:14:07;;;;;;;68.97;50.38;;;;;;;;;;4347796;33;20151;-76
2022/09/29 08:19:40;;;;;;;63.45;47.92;;;;;;;;;;4316034;33;20024;-76
2022/09/29 08:22:08;;;;;;;;;;;;;;;;;;4347860;33;20158;-76
2022/09/29 08:24:35;;;;;;;61.80;45.95;;;;;;;;;;4347109;33;19984;-76
2022/09/29 08:27:01;;;;;;;67.35;46.85;;;;;;;;;;4347279;33;20024;-76
2022/09/29 08:29:26;;;;;;;;;;;;;;;;;;4347510;33;20024;-76
2022/09/29 08:31:52;;;;;;;60.78;44.97;;;;;;;;;;4348103;33;20059;-76
2022/09/29 08:34:18;;;;;;;64.20;46.50;;;;;;;;;;4333567;33;20024;-76
2022/09/29 08:36:43;;;;;;;;;;;;;;;;;;4347680;33;20019;-76
2022/09/29 08:39:09;;;;;;;62.15;47.53;;;;;;;;;;4348586;32;19939;-76
2022/09/29 08:41:53;;;;;;;67.80;46.78;;;;;;;;;;4377545;32;20019;-76
2022/09/29 08:44:21;;;;;;;61.53;47.38;;;;;;;;;;4363226;32;20019;-75
2022/09/29 08:46:53;;;;;;;57.92;45.58;;;;;;;;;;4376947;32;20155;-76
2022/09/29 08:49:21;;;;;;;55.45;42.05;;;;;;;;;;4377292;32;20023;-76
2022/09/29 08:51:52;;;;;;;56.58;43.58;;;;;;;;;;4376651;32;20022;-75
2022/09/29 08:54:32;;;;;;;50.65;40.83;;;;;;;;;;4376931;32;20027;-76
2022/09/29 08:56:58;;;;;;;45.97;40.17;;;;;;;;;;4357542;32;20039;-76
2022/09/29 08:59:26;;;;;;;48.15;38.97;;;;;;;;;;4376481;32;20019;-76
2022/09/29 09:02:10;;;;;;;53.38;38.97;;;;;;;;;;4376793;32;20061;-76
2022/09/29 09:05:02;;;;;;;38.47;32.08;;;;;;;;;;4376594;32;20073;-76
2022/09/29 09:07:39;;;;;;;35.60;31.85;;;;;;;;;;4360448;32;20107;-76
2022/09/29 09:10:13;;;;;;;43.92;30.83;;;;;;;;;;4374570;32;20023;-77
2022/09/29 09:12:57;;;;;;;38.40;30.85;;;;;;;;;;4361675;32;20043;-76
2022/09/29 09:15:40;;;;;;;36.80;29.55;;;;;;;;;;4361649;32;20028;-76
2022/09/29 09:18:18;;;;;;;32.70;27.25;;;;;;;;;;4361830;32;20023;-76
2022/09/29 09:20:51;;;;;;;29.23;24.75;;;;;;;;;;4347884;32;20019;-76
2022/09/29 09:23:21;;;;;;;30.02;25.37;;;;;;;;;;4361613;32;20098;-76
2022/09/29 09:25:51;;;;;;;24.55;21.95;;;;;;;;;;4361001;32;20425;-76
2022/09/29 09:28:28;;;;;;;33.47;17.70;;;;;;;;;;4347871;33;20369;-76
2022/09/29 09:30:59;;;;;;;26.80;18.12;;;;;;;;;;4360790;32;20015;-75
2022/09/29 09:33:43;;;;;;;30.30;20.37;;;;;;;;;;4347714;33;20323;-75
2022/09/29 09:36:12;;;;;;;33.80;19.77;;;;;;;;;;4360946;32;20450;-75
2022/09/29 09:38:44;;;;;;;22.10;16.40;;;;;;;;;;4361261;32;20016;-75
2022/09/29 09:41:12;;;;;;;20.25;16.52;;;;;;;;;;4347956;32;20063;-75
2022/09/29 09:43:43;;;;;;;21.85;15.77;;;;;;;;;;4345839;33;20023;-75
2022/09/29 09:46:31;;;;;;;19.08;13.50;;;;;;;;;;4345938;33;20136;-75
2022/09/29 09:49:15;;;;;;;20.20;14.50;;;;;;;;;;4346321;33;20054;-75
2022/09/29 09:51:44;;;;;;;17.65;14.48;;;;;;;;;;4346601;33;20365;-75
2022/09/29 09:54:12;;;;;;;13.48;9.55;;;;;;;;;;4344623;33;20170;-75
2022/09/29 09:56:38;;;;;;;12.27;9.55;;;;;;;;;;4345828;33;20054;-75
2022/09/29 09:59:03;;;;;;;;;;;;;;;;;;4346734;33;20330;-75
2022/09/29 10:01:28;;;;;;;14.35;9.40;;;;;;;;;;4346139;33;19966;-75
2022/09/29 10:03:58;;;;;;;15.73;9.25;;;;;;;;;;4332823;33;20027;-75
2022/09/29 10:06:23;;;;;;;12.07;8.77;;;;;;;;;;4341170;33;20045;-75
2022/09/29 10:08:48;;;;;;;;;;;;;;;;;;4318014;33;20024;-75
2022/09/29 10:11:20;;;;;;;13.43;10.40;;;;;;;;;;4331332;33;20044;-76
2022/09/29 10:13:47;;;;;;;13.02;9.77;;;;;;;;;;4317913;33;20419;-75
2022/09/29 10:16:15;;;;;;;15.77;10.52;;;;;;;;;;4331473;33;20054;-75
2022/09/29 10:18:45;;;;;;;8.05;6.20;;;;;;;;;;4331823;33;20024;-75
2022/09/29 10:21:27;;;;;;;9.68;7.15;;;;;;;;;;4317427;33;20071;-75
2022/09/29 10:23:54;;;;;;;8.63;7.32;;;;;;;;;;4331444;33;20024;-75
2022/09/29 10:26:28;;;;;;;11.43;6.12;;;;;;;;;;4330687;33;20079;-75
2022/09/29 10:29:18;;;;;;;10.95;8.18;;;;;;;;;;4331479;33;20019;-75
2022/09/29 10:31:56;;;;;;;13.73;8.07;;;;;;;;;;4331374;33;20062;-75
2022/09/29 10:34:24;;;;;;;11.18;8.75;;;;;;;;;;4331172;33;20509;-75
2022/09/29 10:37:01;;;;;;;12.15;8.98;;;;;;;;;;4330957;33;20056;-75
2022/09/29 10:39:42;;;;;;;10.30;9.25;;;;;;;;;;4333191;33;20035;-75
2022/09/29 10:42:19;;;;;;;11.07;9.40;;;;;;;;;;4345944;33;20024;-77
2022/09/29 10:44:49;;;;;;;9.13;7.45;;;;;;;;;;4345793;33;20044;-77
2022/09/29 10:47:18;;;;;;;13.07;7.12;;;;;;;;;;4345379;33;20039;-77
2022/09/29 10:49:44;;;;;;;8.20;6.75;;;;;;;;;;4331801;33;20020;-77
2022/09/29 10:52:27;;;;;;;13.50;6.80;;;;;;;;;;4344773;33;20479;-77
2022/09/29 11:01:49;;;;;;;;;;;;;;;;;;;;;
2022/09/29 11:04:31;;;;;;;7.62;5.00;;;;;;;;;;4324913;33;20039;-77
2022/09/29 11:07:09;;;;;;;13.10;8.73;;;;;;;;;;4335435;33;20031;-76
2022/09/29 11:09:39;;;;;;;8.60;4.47;;;;;;;;;;4345645;33;20016;-77
2022/09/29 11:15:25;;;;;;;7.40;3.50;;;;;;;;;;4323072;33;20059;-77
2022/09/29 11:18:15;;;;;;;3.70;3.20;;;;;;;;;;4345385;33;20020;-76
2022/09/29 11:20:41;;;;;;;4.90;3.17;;;;;;;;;;4337335;33;20035;-77
2022/09/29 11:23:38;;;;;;;3.85;2.72;;;;;;;;;;4326925;33;20147;-76
2022/09/29 11:26:06;;;;;;;;;;;;;;;;;;4270526;33;20029;-76
2022/09/29 11:29:01;;;;;;;6.53;4.82;;;;;;;;;;4345144;33;19953;-77
2022/09/29 11:31:39;;;;;;;6.97;4.65;;;;;;;;;;4332064;33;20032;-77
2022/09/29 11:34:32;;;;;;;7.00;3.83;;;;;;;;;;4344817;33;20029;-77
2022/09/29 11:37:05;;;;;;;4.35;3.45;;;;;;;;;;4331921;33;20358;-76
2022/09/29 11:39:49;;;;;;;4.35;3.20;;;;;;;;;;4345426;33;20020;-77
2022/09/29 11:42:26;;;;;;;7.82;2.33;;;;;;;;;;4360260;33;20020;-77
2022/09/29 11:44:57;;;;;;;5.65;3.00;;;;;;;;;;4360445;33;20031;-76
2022/09/29 11:47:33;;;;;;;4.85;3.33;;;;;;;;;;4360177;33;20023;-76
2022/09/29 11:50:01;;;;;;;4.60;2.60;;;;;;;;;;4360900;33;20452;-76
2022/09/29 11:52:47;;;;;;;3.10;2.10;;;;;;;;;;4359289;32;20092;-76
2022/09/29 11:55:12;;;;;;;13.98;3.37;;;;;;;;;;4362505;32;20118;-77
2022/09/29 11:57:43;;;;;;;9.27;3.20;;;;;;;;;;4348748;33;20031;-76
2022/09/29 12:00:13;;;;;;;4.72;3.20;;;;;;;;;;4349327;33;20050;-76
2022/09/29 12:02:56;;;;;;;11.77;3.70;;;;;;;;;;4363037;32;20031;-77
2022/09/29 12:05:22;;;;;;;3.62;2.72;;;;;;;;;;4348141;33;20066;-76
2022/09/29 12:08:01;;;;;;;4.37;3.25;;;;;;;;;;4348433;33;20069;-75
2022/09/29 12:10:35;;;;;;;3.00;2.05;;;;;;;;;;4349198;33;20028;-75
2022/09/29 12:13:19;;;;;;;5.78;2.65;;;;;;;;;;4362720;32;20042;-76
2022/09/29 12:16:09;;;;;;;2.92;2.22;;;;;;;;;;4362267;32;20027;-76
2022/09/29 12:18:40;;;;;;;2.87;2.45;;;;;;;;;;4361184;32;20081;-76
2022/09/29 12:21:10;;;;;;;3.95;2.90;;;;;;;;;;4359197;32;20104;-76
2022/09/29 12:23:36;;;;;;;6.72;4.12;;;;;;;;;;4346161;33;20035;-75
2022/09/29 12:26:08;;;;;;;3.78;2.60;;;;;;;;;;4362282;32;20077;-77
2022/09/29 12:28:36;;;;;;;6.25;2.50;;;;;;;;;;4362057;32;20058;-73
2022/09/29 12:31:05;;;;;;;6.45;3.10;;;;;;;;;;4362246;32;20058;-76
2022/09/29 12:33:30;;;;;;;6.97;3.10;;;;;;;;;;4362138;32;20409;-76
2022/09/29 12:35:58;;;;;;;3.92;2.70;;;;;;;;;;4361899;32;20119;-76
2022/09/29 12:38:35;;;;;;;11.20;2.78;;;;;;;;;;4348283;33;20024;-76
2022/09/29 12:41:09;;;;;;;8.45;4.00;;;;;;;;;;4361355;32;20108;-76
2022/09/29 12:43:44;;;;;;;4.60;2.97;;;;;;;;;;4362485;32;20019;-75
2022/09/29 12:46:29;;;;;;;8.70;3.55;;;;;;;;;;4361864;32;20058;-75
2022/09/29 12:49:03;;;;;;;4.35;2.85;;;;;;;;;;4361561;32;20433;-75
2022/09/29 12:51:37;;;;;;;3.83;2.83;;;;;;;;;;4362108;32;20436;-76
2022/09/29 12:54:14;;;;;;;4.70;2.65;;;;;;;;;;4361465;32;20054;-75
2022/09/29 12:56:43;;;;;;;6.03;2.22;;;;;;;;;;4361740;33;20138;-75
2022/09/29 12:59:12;;;;;;;3.90;2.40;;;;;;;;;;4348233;33;20019;-75
2022/09/29 13:01:38;;;;;;;7.62;2.72;;;;;;;;;;4361480;32;20073;-75
2022/09/29 13:04:09;;;;;;;7.28;3.22;;;;;;;;;;4361439;32;20027;-76
2022/09/29 13:06:34;;;;;;;5.62;2.75;;;;;;;;;;4347628;33;20368;-75
2022/09/29 13:09:20;;;;;;;4.90;2.30;;;;;;;;;;4347700;33;20019;-75
2022/09/29 13:11:50;;;;;;;3.30;2.30;;;;;;;;;;4309991;33;20058;-74
2022/09/29 13:14:29;;;;;;;2.92;2.10;;;;;;;;;;4362246;32;20027;-75
2022/09/29 13:17:06;;;;;;;3.00;2.30;;;;;;;;;;4347813;33;20406;-75
2022/09/29 13:19:35;;;;;;;2.95;2.10;;;;;;;;;;4347839;33;20031;-76
2022/09/29 13:22:17;;;;;;;4.12;2.25;;;;;;;;;;4345583;33;20016;-76
2022/09/29 13:24:42;;;;;;;3.22;1.90;;;;;;;;;;4333175;33;20454;-76
2022/09/29 13:27:11;;;;;;;2.97;2.08;;;;;;;;;;4332722;33;20031;-76
2022/09/29 13:29:45;;;;;;;6.50;2.28;;;;;;;;;;4333093;33;20410;-76
2022/09/29 13:32:11;;;;;;;6.18;2.92;;;;;;;;;;4332923;33;20054;-76
2022/09/29 13:34:37;;;;;;;5.12;2.50;;;;;;;;;;4333301;33;20023;-76
2022/09/29 13:37:10;;;;;;;4.45;1.67;;;;;;;;;;4332326;33;20039;-76
2022/09/29 13:39:35;;;;;;;4.72;1.10;;;;;;;;;;4332926;33;20444;-76
2022/09/29 13:42:20;;;;;;;3.35;1.20;;;;;;;;;;4332371;33;20039;-76
2022/09/29 13:45:05;;;;;;;2.55;0.90;;;;;;;;;;4332521;33;20027;-75
2022/09/29 13:47:31;;;;;;;4.30;2.03;;;;;;;;;;4346399;33;20023;-76
2022/09/29 13:50:11;;;;;;;7.30;2.17;;;;;;;;;;4345870;33;20102;-76
2022/09/29 13:52:39;;;;;;;4.15;2.05;;;;;;;;;;4332391;33;20028;-76
2022/09/29 13:55:23;;;;;;;6.57;4.00;;;;;;;;;;4332438;33;20028;-75
2022/09/29 13:57:51;;;;;;;2.58;1.60;;;;;;;;;;4332344;33;20085;-75
2022/09/29 14:00:19;;;;;;;2.90;1.42;;;;;;;;;;4332373;33;20035;-75
2022/09/29 14:05:56;;;;;;;2.40;1.00;;;;;;;;;;4300517;33;20071;-75
2022/09/29 14:08:25;;;;;;;4.72;1.83;;;;;;;;;;4343503;33;20042;-76
2022/09/29 14:11:01;;;;;;;4.50;1.33;;;;;;;;;;4359953;32;20102;-77
2022/09/29 14:13:30;;;;;;;6.20;1.35;;;;;;;;;;4339976;33;20097;-76
2022/09/29 14:15:55;;;;;;;4.47;1.70;;;;;;;;;;4332148;33;20036;-77
2022/09/29 14:18:29;;;;;;;3.50;1.65;;;;;;;;;;4332740;33;20480;-76
2022/09/29 14:21:02;;;;;;;2.12;1.30;;;;;;;;;;4332404;33;20016;-75
2022/09/29 14:23:43;;;;;;;1.25;1.00;;;;;;;;;;4332646;33;20041;-76
2022/09/29 14:26:28;;;;;;;2.65;1.00;;;;;;;;;;4333034;33;20035;-76
2022/09/29 14:28:55;;;;;;;6.55;1.85;;;;;;;;;;4331808;33;20062;-76
2022/09/29 14:31:21;;;;;;;3.55;1.60;;;;;;;;;;4332089;33;20039;-76
2022/09/29 14:33:48;;;;;;;1.62;1.30;;;;;;;;;;4345252;33;20539;-77
2022/09/29 14:36:17;;;;;;;1.87;1.52;;;;;;;;;;4332630;33;20086;-76
2022/09/29 14:38:44;;;;;;;2.95;1.48;;;;;;;;;;4345270;33;20024;-77
2022/09/29 14:41:10;;;;;;;3.62;1.60;;;;;;;;;;4331310;33;20067;-77
2022/09/29 14:44:05;;;;;;;3.55;1.80;;;;;;;;;;4332224;33;20323;-77
2022/09/29 14:52:26;;;;;;;5.15;2.60;;;;;;;;;;4350805;33;20039;-75
2022/09/29 14:55:04;;;;;;;3.30;1.87;;;;;;;;;;4346151;33;20019;-76
2022/09/29 14:57:42;;;;;;;2.03;1.65;;;;;;;;;;4358620;32;20088;-75
2022/09/29 15:00:21;;;;;;;;;;;;;;;;;;;;;
2022/09/29 15:02:56;;;;;;;4.25;1.80;;;;;;;;;;4350606;33;20069;-75
2022/09/29 15:05:21;;;;;;;3.92;2.25;;;;;;;;;;4343778;33;20031;-75
2022/09/29 15:07:47;;;;;;;5.28;2.50;;;;;;;;;;4345675;33;20069;-75
2022/09/29 15:10:23;;;;;;;4.75;1.85;;;;;;;;;;4345461;33;20043;-79
2022/09/29 15:12:49;;;;;;;;;;;;;;;;;;4357631;33;20035;-74
2022/09/29 15:15:27;;;;;;;2.75;1.48;;;;;;;;;;4345428;33;19953;-75
2022/09/29 15:18:00;;;;;;;3.10;2.10;;;;;;;;;;4346491;33;20115;-75
2022/09/29 15:20:25;;;;;;;2.50;1.80;;;;;;;;;;4360258;33;20027;-77
2022/09/29 15:23:00;;;;;;;3.72;1.80;;;;;;;;;;4347160;33;20027;-74
2022/09/29 15:25:31;;;;;;;4.32;2.30;;;;;;;;;;4346521;33;20027;-75
2022/09/29 15:28:16;;;;;;;2.55;1.73;;;;;;;;;;4347174;33;20027;-73
2022/09/29 15:30:45;;;;;;;2.72;1.90;;;;;;;;;;4361448;32;20031;-74
2022/09/29 15:33:17;;;;;;;3.95;1.73;;;;;;;;;;4349146;33;20023;-74
2022/09/29 15:35:45;;;;;;;4.50;2.12;;;;;;;;;;4362849;32;20240;-74
2022/09/29 15:38:16;;;;;;;5.47;1.80;;;;;;;;;;4348781;33;20059;-75
2022/09/29 15:40:44;;;;;;;5.20;1.80;;;;;;;;;;4348375;33;20035;-75
2022/09/29 15:43:24;;;;;;;2.62;1.40;;;;;;;;;;4349506;33;20066;-74
2022/09/29 15:46:01;;;;;;;4.18;1.83;;;;;;;;;;4348870;33;20023;-74
2022/09/29 15:48:30;;;;;;;3.42;1.80;;;;;;;;;;4349131;33;20027;-75